Time;durP1;ratioP1;P1;durP2;ratioP2;P2;SDS_P1;SDS_P2;PMS_P1;PMS_P2;Temp;Humidity;BMP_temperature;BMP_pressure;BME280_temperature;BME280_humidity;BME280_pressure;Samples;Min_cycle;Max_cycle;Signal;HPM_P1;HPM_P2
2024/01/19 00:02:58;;;;;;;99.05;92.85;;;-0.90;99.90;;;;;;12544618;28;20052;-35
2024/01/19 00:08:59;;;;;;;102.60;96.43;;;-0.90;99.90;;;;;;12560189;28;20052;-35
2024/01/19 00:15:09;;;;;;;106.47;100.18;;;-0.80;99.90;;;;;;12557043;28;20088;-35
2024/01/19 00:21:11;;;;;;;102.57;96.50;;;-0.70;99.90;;;;;;12554773;28;20064;-35
2024/01/19 00:27:12;;;;;;;103.72;97.38;;;-0.70;99.90;;;;;;12562694;28;20087;-35
2024/01/19 00:33:14;;;;;;;106.82;100.38;;;-0.70;99.90;;;;;;12541482;28;20630;-35
2024/01/19 00:39:16;;;;;;;110.85;103.95;;;-0.60;99.90;;;;;;12556072;28;20565;-34
2024/01/19 00:45:18;;;;;;;111.30;104.50;;;-0.60;99.90;;;;;;12565508;28;20421;-35
2024/01/19 00:51:20;;;;;;;112.57;105.78;;;-0.60;99.90;;;;;;12561264;28;20076;-35
2024/01/19 00:57:22;;;;;;;113.55;106.65;;;-0.60;99.90;;;;;;12554106;28;20049;-35
2024/01/19 01:03:26;;;;;;;109.05;102.13;;;-0.70;99.90;;;;;;12567328;28;20097;-35
2024/01/19 01:09:28;;;;;;;106.72;100.05;;;-0.70;99.90;;;;;;12570183;28;20497;-35
2024/01/19 01:15:30;;;;;;;111.93;105.13;;;-0.70;99.90;;;;;;12563998;28;20078;-35
2024/01/19 01:21:32;;;;;;;113.07;105.97;;;-0.60;99.90;;;;;;12569116;28;20505;-35
2024/01/19 01:27:33;;;;;;;114.90;107.70;;;-0.60;99.90;;;;;;12567197;28;20412;-36
2024/01/19 01:33:35;;;;;;;113.10;105.95;;;-0.70;99.90;;;;;;12559310;28;20048;-35
2024/01/19 01:39:37;;;;;;;111.85;104.75;;;-0.70;99.90;;;;;;12577093;28;20049;-35
2024/01/19 01:45:39;;;;;;;110.93;103.80;;;-0.80;99.90;;;;;;12588183;28;20041;-35
2024/01/19 01:51:41;;;;;;;104.13;97.50;;;-0.80;99.90;;;;;;12554328;28;20036;-35
2024/01/19 01:57:44;;;;;;;107.20;100.38;;;-0.80;99.90;;;;;;12567899;28;20417;-35
2024/01/19 02:03:47;;;;;;;103.75;97.20;;;-0.80;99.90;;;;;;12565205;28;20553;-36
2024/01/19 02:09:49;;;;;;;105.10;98.45;;;-0.70;99.90;;;;;;12580273;28;20048;-35
2024/01/19 02:15:51;;;;;;;106.57;99.95;;;-0.70;99.90;;;;;;12560550;28;20041;-35
2024/01/19 02:21:53;;;;;;;113.80;106.30;;;-0.70;99.90;;;;;;12552383;28;20056;-36
2024/01/19 02:27:57;;;;;;;111.35;104.20;;;-0.80;99.90;;;;;;12573499;28;20079;-35
2024/01/19 02:33:59;;;;;;;108.03;101.33;;;-0.90;99.90;;;;;;12553123;28;20417;-35
2024/01/19 02:40:01;;;;;;;107.35;100.65;;;-0.90;99.90;;;;;;12582654;28;20523;-35
2024/01/19 02:46:03;;;;;;;103.60;97.30;;;-1.00;99.90;;;;;;12573955;28;20045;-35
2024/01/19 02:52:05;;;;;;;104.68;98.25;;;-0.90;99.90;;;;;;12554952;28;20056;-35
2024/01/19 02:58:07;;;;;;;106.97;100.28;;;-0.90;99.90;;;;;;12571838;28;20060;-35
2024/01/19 03:04:08;;;;;;;108.43;101.72;;;-0.90;99.90;;;;;;12597234;28;20130;-35
2024/01/19 03:10:10;;;;;;;121.93;114.18;;;-0.80;99.90;;;;;;12563252;28;20052;-36
2024/01/19 03:16:12;;;;;;;183.05;170.50;;;-0.70;99.90;;;;;;12561179;28;20048;-35
2024/01/19 03:22:14;;;;;;;202.88;188.75;;;-0.70;99.90;;;;;;12566265;28;20580;-35
2024/01/19 03:28:16;;;;;;;189.52;176.43;;;-0.70;99.90;;;;;;12562129;28;20092;-36
2024/01/19 03:34:18;;;;;;;162.00;150.88;;;-0.90;99.90;;;;;;12568224;28;20177;-36
2024/01/19 03:40:20;;;;;;;141.35;132.15;;;-1.20;99.90;;;;;;12547627;28;20053;-35
2024/01/19 03:46:22;;;;;;;138.85;129.88;;;-1.20;99.90;;;;;;12544111;28;20508;-35
2024/01/19 03:52:24;;;;;;;141.10;132.00;;;-1.20;99.90;;;;;;12569029;28;20466;-35
2024/01/19 03:58:26;;;;;;;136.93;128.15;;;-1.20;99.90;;;;;;12585267;28;20047;-35
2024/01/19 04:04:28;;;;;;;129.23;120.43;;;-1.30;99.90;;;;;;12557903;28;20075;-37
2024/01/19 04:10:30;;;;;;;119.10;111.55;;;-1.30;99.90;;;;;;12572940;28;20151;-35
2024/01/19 04:16:32;;;;;;;126.30;118.28;;;-1.30;99.90;;;;;;12570839;28;20512;-35
2024/01/19 04:22:33;;;;;;;119.07;111.65;;;-1.30;99.90;;;;;;12562618;28;20084;-35
2024/01/19 04:28:35;;;;;;;107.80;100.75;;;-1.30;99.90;;;;;;12551516;28;20110;-35
2024/01/19 04:34:37;;;;;;;112.15;105.07;;;-1.40;99.90;;;;;;12557772;28;20132;-35
2024/01/19 04:40:39;;;;;;;108.15;101.25;;;-1.30;99.90;;;;;;12547346;28;20040;-35
2024/01/19 04:46:41;;;;;;;113.10;105.88;;;-1.30;99.90;;;;;;12565089;28;20045;-35
2024/01/19 04:52:43;;;;;;;108.47;101.60;;;-1.40;99.90;;;;;;12549188;28;20464;-35
2024/01/19 04:58:44;;;;;;;103.70;97.03;;;-1.40;99.90;;;;;;12554768;28;20416;-35
2024/01/19 05:04:46;;;;;;;96.60;90.30;;;-1.50;99.90;;;;;;12550791;28;20412;-35
2024/01/19 05:10:48;;;;;;;95.70;89.35;;;-1.50;99.90;;;;;;12544939;28;20049;-35
2024/01/19 05:16:50;;;;;;;94.50;88.05;;;-1.50;99.90;;;;;;12559031;28;20044;-36
2024/01/19 05:22:52;;;;;;;100.43;93.32;;;-1.60;99.90;;;;;;12539607;28;20139;-35
2024/01/19 05:28:54;;;;;;;96.10;89.45;;;-1.60;99.90;;;;;;12552131;28;20486;-36
2024/01/19 05:34:56;;;;;;;94.15;87.80;;;-1.60;99.90;;;;;;12550097;28;20443;-35
2024/01/19 05:41:01;;;;;;;91.45;85.22;;;-1.50;99.90;;;;;;12547507;28;20503;-36
2024/01/19 05:47:03;;;;;;;96.53;89.18;;;-1.50;99.90;;;;;;12565057;28;20060;-35
2024/01/19 05:53:05;;;;;;;98.25;90.82;;;-1.40;99.90;;;;;;12567091;28;20044;-36
2024/01/19 05:59:07;;;;;;;100.45;92.90;;;-1.30;99.90;;;;;;12555616;28;20057;-35
2024/01/19 06:05:09;;;;;;;100.07;92.60;;;-1.30;99.90;;;;;;12567103;28;20727;-36
2024/01/19 06:11:11;;;;;;;121.88;110.13;;;-1.40;99.90;;;;;;12552277;28;20044;-35
2024/01/19 06:17:15;;;;;;;111.05;102.18;;;-1.50;99.90;;;;;;12569218;28;20067;-35
2024/01/19 06:23:17;;;;;;;103.68;96.15;;;-1.50;99.90;;;;;;12558808;28;20503;-35
2024/01/19 06:29:19;;;;;;;101.82;94.35;;;-1.50;99.90;;;;;;12555877;28;20041;-35
2024/01/19 06:35:22;;;;;;;101.22;93.20;;;-1.50;99.90;;;;;;12542714;28;20052;-36
2024/01/19 06:41:23;;;;;;;106.05;98.30;;;-1.50;99.90;;;;;;12553361;28;20057;-35
2024/01/19 06:47:26;;;;;;;105.18;97.18;;;-1.50;99.90;;;;;;12572344;28;20048;-35
2024/01/19 06:53:28;;;;;;;108.05;100.25;;;-1.60;99.90;;;;;;12553119;28;20052;-34
2024/01/19 06:59:32;;;;;;;109.55;101.10;;;-1.30;99.90;;;;;;12558542;28;20059;-35
2024/01/19 07:05:34;;;;;;;105.50;97.47;;;-1.20;99.90;;;;;;12546734;28;20413;-35
2024/01/19 07:11:36;;;;;;;109.10;100.70;;;-1.10;99.90;;;;;;12545906;28;20055;-35
2024/01/19 07:17:38;;;;;;;111.20;102.90;;;-1.10;99.90;;;;;;12571713;28;20060;-35
2024/01/19 07:23:40;;;;;;;111.85;103.45;;;-1.00;99.90;;;;;;12537122;28;20127;-35
2024/01/19 07:29:42;;;;;;;117.03;108.55;;;-0.80;99.90;;;;;;12562895;28;20041;-36
2024/01/19 07:35:45;;;;;;;117.00;108.78;;;-0.80;99.90;;;;;;12557619;28;20071;-35
2024/01/19 07:41:47;;;;;;;118.40;110.00;;;-0.80;99.90;;;;;;12538612;28;20460;-35
2024/01/19 07:47:49;;;;;;;121.07;112.50;;;-0.60;99.90;;;;;;12579141;28;20110;-36
2024/01/19 07:53:53;;;;;;;125.25;116.43;;;-0.70;99.90;;;;;;12539968;28;20115;-35
2024/01/19 07:59:55;;;;;;;128.97;119.60;;;-0.70;99.90;;;;;;12585259;28;20456;-35
2024/01/19 08:05:57;;;;;;;126.35;117.28;;;-0.70;99.90;;;;;;12555577;28;20053;-35
2024/01/19 08:11:59;;;;;;;128.05;118.78;;;-0.70;99.90;;;;;;12552784;28;20074;-36
2024/01/19 08:18:02;;;;;;;125.00;116.38;;;-0.80;99.90;;;;;;12563323;28;20398;-35
2024/01/19 08:24:04;;;;;;;124.07;115.15;;;-0.60;99.90;;;;;;12557574;28;20045;-35
2024/01/19 08:30:06;;;;;;;124.32;115.28;;;-0.60;99.90;;;;;;12560576;28;20097;-35
2024/01/19 08:36:08;;;;;;;119.78;111.40;;;-0.50;99.90;;;;;;12553924;28;20124;-36
2024/01/19 08:42:10;;;;;;;119.78;111.18;;;-0.40;99.90;;;;;;12549758;28;20052;-36
2024/01/19 08:48:12;;;;;;;119.28;110.32;;;-0.50;99.90;;;;;;12564557;28;20076;-35
2024/01/19 08:54:16;;;;;;;102.50;95.10;;;-0.40;99.90;;;;;;12561713;28;20059;-35
2024/01/19 09:00:18;;;;;;;109.03;100.40;;;-0.20;99.90;;;;;;12535188;28;20135;-36
2024/01/19 09:06:20;;;;;;;110.00;101.80;;;-0.30;99.90;;;;;;12547058;28;20106;-36
2024/01/19 09:12:23;;;;;;;112.55;104.65;;;-0.20;99.90;;;;;;12584386;28;20044;-36
2024/01/19 09:18:25;;;;;;;103.28;95.68;;;-0.20;99.90;;;;;;12553068;28;20048;-36
2024/01/19 09:24:27;;;;;;;111.95;103.80;;;-0.10;99.90;;;;;;12545898;28;20048;-35
2024/01/19 09:30:29;;;;;;;110.43;102.25;;;-0.40;99.90;;;;;;12570553;28;20048;-35
2024/01/19 09:36:31;;;;;;;115.25;107.05;;;-0.40;99.90;;;;;;12565839;28;20045;-35
2024/01/19 09:42:34;;;;;;;116.20;107.82;;;-0.50;99.90;;;;;;12550515;28;20143;-34
2024/01/19 09:48:52;;;;;;;114.55;106.28;;;-0.50;99.90;;;;;;12557150;28;20056;-36
2024/01/19 09:54:55;;;;;;;113.10;104.78;;;-0.40;99.90;;;;;;12546763;28;20052;-35
2024/01/19 10:00:56;;;;;;;120.30;111.40;;;-0.30;99.90;;;;;;12552055;28;20052;-35
2024/01/19 10:07:01;;;;;;;118.00;109.45;;;-0.30;99.90;;;;;;12554047;28;20073;-35
2024/01/19 10:13:03;;;;;;;126.25;116.95;;;-0.30;99.90;;;;;;12563101;28;20053;-35
2024/01/19 10:19:08;;;;;;;127.95;118.78;;;-0.30;99.90;;;;;;12554969;28;20053;-36
2024/01/19 10:25:12;;;;;;;122.78;113.93;;;-0.20;99.90;;;;;;12547966;28;20052;-35
2024/01/19 10:31:16;;;;;;;128.77;119.53;;;-0.10;99.90;;;;;;12559530;28;20044;-35
2024/01/19 10:37:21;;;;;;;130.32;120.80;;;0.00;99.90;;;;;;12554780;28;20072;-36
2024/01/19 10:43:23;;;;;;;131.75;122.35;;;0.10;99.90;;;;;;12561173;28;20134;-35
2024/01/19 10:49:25;;;;;;;131.85;122.13;;;0.30;99.90;;;;;;12578397;28;20048;-36
2024/01/19 10:55:29;;;;;;;128.90;119.82;;;0.50;99.90;;;;;;12567945;28;20041;-36
2024/01/19 11:01:31;;;;;;;139.38;129.05;;;0.70;99.90;;;;;;12561468;28;20145;-35
2024/01/19 11:07:33;;;;;;;134.43;124.60;;;0.40;99.90;;;;;;12572716;28;20076;-35
2024/01/19 11:13:43;;;;;;;127.75;118.57;;;0.30;99.90;;;;;;12540491;28;20045;-36
2024/01/19 11:19:45;;;;;;;130.82;121.47;;;0.50;99.90;;;;;;12565260;28;20087;-36
2024/01/19 11:25:56;;;;;;;133.95;124.18;;;0.70;99.90;;;;;;12555849;28;20473;-35
2024/01/19 11:31:59;;;;;;;137.07;127.13;;;0.80;99.90;;;;;;12552124;28;20052;-36
2024/01/19 11:38:01;;;;;;;129.95;120.30;;;0.70;99.90;;;;;;12552094;28;20053;-36
2024/01/19 11:44:07;;;;;;;128.70;119.20;;;0.90;99.90;;;;;;12552444;28;20095;-35
2024/01/19 11:50:11;;;;;;;128.95;119.50;;;1.00;99.90;;;;;;12576270;28;20785;-34
2024/01/19 11:56:21;;;;;;;128.95;120.00;;;1.10;99.90;;;;;;12564013;28;20421;-36
2024/01/19 12:02:31;;;;;;;131.55;121.88;;;1.30;99.90;;;;;;12563826;28;20049;-36
2024/01/19 12:08:33;;;;;;;139.98;129.43;;;1.40;99.90;;;;;;12561524;28;20052;-36
2024/01/19 12:14:35;;;;;;;139.93;129.43;;;1.20;99.90;;;;;;12546014;28;20072;-35
2024/01/19 12:20:37;;;;;;;143.02;132.40;;;1.10;99.90;;;;;;12561071;28;20129;-35
2024/01/19 12:26:49;;;;;;;135.00;125.30;;;1.10;99.90;;;;;;12577723;28;20044;-35
2024/01/19 12:32:51;;;;;;;135.95;126.05;;;1.00;99.90;;;;;;12537122;28;20052;-35
2024/01/19 12:39:10;;;;;;;134.60;124.38;;;1.20;99.90;;;;;;12572267;28;20053;-35
2024/01/19 12:45:19;;;;;;;130.77;121.00;;;1.10;99.90;;;;;;12550605;28;20135;-35
2024/01/19 12:51:21;;;;;;;127.07;117.75;;;0.90;99.90;;;;;;12536828;28;20041;-35
2024/01/19 12:57:23;;;;;;;126.00;116.80;;;1.00;99.90;;;;;;12569175;28;20109;-35
2024/01/19 13:03:25;;;;;;;129.25;119.90;;;1.10;99.90;;;;;;12547634;28;20041;-35
2024/01/19 13:09:27;;;;;;;128.68;118.90;;;1.00;99.90;;;;;;12551581;28;20044;-35
2024/01/19 13:15:31;;;;;;;128.90;119.55;;;0.90;99.90;;;;;;12546712;28;20063;-36
2024/01/19 13:21:33;;;;;;;131.07;120.87;;;0.90;99.90;;;;;;12556454;28;20421;-36
2024/01/19 13:27:35;;;;;;;119.53;110.45;;;0.80;99.90;;;;;;12565253;28;20189;-36
2024/01/19 13:33:41;;;;;;;122.55;113.03;;;0.90;99.90;;;;;;12540180;28;20049;-35
2024/01/19 13:39:43;;;;;;;121.80;112.85;;;0.80;99.90;;;;;;12559547;28;20161;-36
2024/01/19 13:45:45;;;;;;;120.05;110.88;;;0.80;99.90;;;;;;12562080;28;20066;-35
2024/01/19 13:51:47;;;;;;;123.93;114.50;;;0.90;99.90;;;;;;12554179;28;20479;-36
2024/01/19 13:57:48;;;;;;;114.22;105.85;;;0.80;99.90;;;;;;12566608;28;20049;-36
2024/01/19 14:03:52;;;;;;;109.07;101.13;;;0.90;99.90;;;;;;12570646;28;20421;-36
2024/01/19 14:09:54;;;;;;;101.77;94.30;;;1.00;99.90;;;;;;12565722;28;20126;-35
2024/01/19 14:15:56;;;;;;;106.93;99.30;;;1.10;99.90;;;;;;12556606;28;20478;-36
2024/01/19 14:21:58;;;;;;;106.70;99.18;;;1.00;99.90;;;;;;12551950;28;20060;-35
2024/01/19 14:28:00;;;;;;;106.28;98.47;;;1.10;99.90;;;;;;12541761;28;20049;-36
2024/01/19 14:34:02;;;;;;;109.20;101.20;;;1.00;99.90;;;;;;12559864;28;20420;-36
2024/01/19 14:40:05;;;;;;;117.93;109.25;;;0.90;99.90;;;;;;12553909;28;20524;-34
2024/01/19 14:46:07;;;;;;;115.22;106.75;;;0.90;99.90;;;;;;12566039;28;20048;-36
2024/01/19 14:52:09;;;;;;;118.35;109.25;;;0.90;99.90;;;;;;12560691;28;20055;-35
2024/01/19 14:58:12;;;;;;;115.05;106.53;;;0.80;99.90;;;;;;12541244;28;20053;-37
2024/01/19 15:04:13;;;;;;;119.15;110.07;;;0.80;99.90;;;;;;12571222;28;20045;-36
2024/01/19 15:10:15;;;;;;;119.95;110.75;;;0.70;99.90;;;;;;12563428;28;20045;-35
2024/01/19 15:16:18;;;;;;;121.47;112.05;;;0.60;99.90;;;;;;12555547;28;20060;-35
2024/01/19 15:22:20;;;;;;;117.25;108.05;;;0.60;99.90;;;;;;12573699;28;20045;-35
2024/01/19 15:28:22;;;;;;;120.20;110.60;;;0.40;99.90;;;;;;12551570;28;20393;-36
2024/01/19 15:34:24;;;;;;;118.22;108.53;;;0.40;99.90;;;;;;12560201;28;20052;-35
2024/01/19 15:40:26;;;;;;;112.47;103.15;;;0.30;99.90;;;;;;12552746;28;20093;-35
2024/01/19 15:46:28;;;;;;;115.00;105.68;;;0.30;99.90;;;;;;12577645;28;20040;-35
2024/01/19 15:52:30;;;;;;;117.43;108.18;;;0.20;99.90;;;;;;12560863;28;20416;-34
2024/01/19 15:58:32;;;;;;;116.28;106.80;;;0.20;99.90;;;;;;12559253;28;20506;-35
2024/01/19 16:04:35;;;;;;;115.63;106.38;;;0.10;99.90;;;;;;12560175;28;20045;-35
2024/01/19 16:10:37;;;;;;;117.75;108.40;;;0.10;99.90;;;;;;12568554;28;20040;-35
2024/01/19 16:16:42;;;;;;;121.78;111.80;;;0.10;99.90;;;;;;12557580;28;20044;-35
2024/01/19 16:22:44;;;;;;;116.95;107.32;;;0.10;99.90;;;;;;12565182;28;20063;-35
2024/01/19 16:28:50;;;;;;;113.88;105.00;;;0.00;99.90;;;;;;12556772;28;20048;-35
2024/01/19 16:34:52;;;;;;;110.10;101.10;;;0.10;99.90;;;;;;12555564;28;20044;-35
2024/01/19 16:40:57;;;;;;;110.70;101.72;;;0.00;99.90;;;;;;12557430;28;20548;-35
2024/01/19 16:46:59;;;;;;;113.63;104.15;;;0.00;99.90;;;;;;12569003;28;20044;-36
2024/01/19 16:53:01;;;;;;;112.50;103.55;;;0.00;99.90;;;;;;12556997;28;20408;-34
2024/01/19 16:59:03;;;;;;;111.50;102.35;;;0.00;99.90;;;;;;12567407;28;20539;-35
2024/01/19 17:05:05;;;;;;;111.45;102.47;;;0.00;99.90;;;;;;12561631;28;20468;-36
2024/01/19 17:11:07;;;;;;;117.05;107.90;;;-0.10;99.90;;;;;;12570301;28;20052;-35
2024/01/19 17:17:09;;;;;;;119.43;109.97;;;0.00;99.90;;;;;;12570749;28;20053;-35
2024/01/19 17:23:11;;;;;;;121.10;111.63;;;-0.10;99.90;;;;;;12562414;28;20524;-37
2024/01/19 17:29:14;;;;;;;119.57;110.20;;;-0.10;99.90;;;;;;12553907;28;20045;-36
2024/01/19 17:35:16;;;;;;;120.00;111.03;;;-0.10;99.90;;;;;;12553213;28;20075;-35
2024/01/19 17:41:18;;;;;;;119.80;110.80;;;-0.10;99.90;;;;;;12552167;28;20477;-36
2024/01/19 17:47:21;;;;;;;122.43;112.57;;;-0.10;99.90;;;;;;12563214;28;20367;-36
2024/01/19 17:53:23;;;;;;;120.90;111.80;;;-0.20;99.90;;;;;;12563241;28;20037;-36
2024/01/19 17:59:27;;;;;;;123.00;113.32;;;-0.30;99.90;;;;;;12582355;28;20049;-36
2024/01/19 18:05:29;;;;;;;118.07;109.03;;;-0.30;99.90;;;;;;12563285;28;20091;-35
2024/01/19 18:11:31;;;;;;;118.53;109.22;;;-0.30;99.90;;;;;;12565768;28;20528;-36
2024/01/19 18:17:34;;;;;;;118.13;109.20;;;-0.30;99.90;;;;;;12555773;28;20382;-36
2024/01/19 18:23:36;;;;;;;115.15;106.28;;;-0.20;99.90;;;;;;12565148;28;20064;-35
2024/01/19 18:29:39;;;;;;;111.95;103.80;;;-0.20;99.90;;;;;;12548347;28;20063;-36
2024/01/19 18:35:43;;;;;;;116.47;107.77;;;-0.20;99.90;;;;;;12550389;28;20089;-36
2024/01/19 18:41:45;;;;;;;117.90;109.05;;;-0.20;99.90;;;;;;12569757;28;20056;-36
2024/01/19 18:47:46;;;;;;;114.85;106.45;;;-0.20;99.90;;;;;;12574609;28;20067;-36
2024/01/19 18:53:48;;;;;;;118.85;109.75;;;-0.20;99.90;;;;;;12538550;28;20585;-36
2024/01/19 18:59:53;;;;;;;114.88;106.03;;;-0.30;99.90;;;;;;12570508;28;20094;-35
2024/01/19 19:05:55;;;;;;;116.50;107.38;;;-0.30;99.90;;;;;;12553976;28;20045;-36
2024/01/19 19:11:59;;;;;;;117.72;107.95;;;-0.40;99.90;;;;;;12551546;28;20044;-35
2024/01/19 19:18:01;;;;;;;114.97;105.93;;;-0.40;99.90;;;;;;12570962;28;20064;-35
2024/01/19 19:24:03;;;;;;;117.85;108.68;;;-0.50;99.90;;;;;;12574667;28;20607;-36
2024/01/19 19:30:10;;;;;;;118.90;110.05;;;-0.50;99.90;;;;;;12555532;28;20048;-36
2024/01/19 19:36:13;;;;;;;121.95;112.82;;;-0.50;99.90;;;;;;12575940;28;20424;-35
2024/01/19 19:42:15;;;;;;;118.95;110.15;;;-0.50;99.90;;;;;;12570565;28;20056;-37
2024/01/19 19:48:17;;;;;;;120.22;110.82;;;-0.50;99.90;;;;;;12582337;28;20053;-36
2024/01/19 19:54:20;;;;;;;119.45;110.28;;;-0.50;99.90;;;;;;12556600;28;20048;-37
2024/01/19 20:00:23;;;;;;;123.55;113.90;;;-0.50;99.90;;;;;;12545519;28;20060;-37
2024/01/19 20:06:25;;;;;;;125.07;115.32;;;-0.50;99.90;;;;;;12554859;28;20513;-36
2024/01/19 20:12:27;;;;;;;121.97;112.85;;;-0.50;99.90;;;;;;12562651;28;20047;-36
2024/01/19 20:18:29;;;;;;;124.63;114.63;;;-0.50;99.90;;;;;;12554538;28;20056;-36
2024/01/19 20:24:32;;;;;;;120.40;111.15;;;-0.60;99.90;;;;;;12574875;28;20041;-36
2024/01/19 20:30:34;;;;;;;126.43;116.60;;;-0.50;99.90;;;;;;12567273;28;21234;-36
2024/01/19 20:36:36;;;;;;;127.32;117.72;;;-0.40;99.90;;;;;;12562287;28;20544;-36
2024/01/19 20:42:37;;;;;;;125.70;116.40;;;-0.50;99.90;;;;;;12556262;28;20425;-35
2024/01/19 20:48:39;;;;;;;131.00;121.57;;;-0.40;99.90;;;;;;12566561;28;20147;-35
2024/01/19 20:54:41;;;;;;;131.50;122.00;;;-0.50;99.90;;;;;;12544393;28;20071;-36
2024/01/19 21:00:43;;;;;;;133.98;124.25;;;-0.40;99.90;;;;;;12564597;28;20550;-36
2024/01/19 21:06:45;;;;;;;134.75;124.78;;;-0.20;99.90;;;;;;12569876;28;20056;-36
2024/01/19 21:12:48;;;;;;;133.50;123.35;;;-0.20;99.90;;;;;;12562537;28;20392;-35
2024/01/19 21:18:52;;;;;;;131.10;120.57;;;-0.30;99.90;;;;;;12559657;28;20064;-36
2024/01/19 21:24:55;;;;;;;132.13;121.63;;;-0.30;99.90;;;;;;12573400;28;20189;-35
2024/01/19 21:30:57;;;;;;;135.40;125.65;;;-0.40;99.90;;;;;;12541831;28;20437;-37
2024/01/19 21:36:59;;;;;;;133.88;124.07;;;-0.40;99.90;;;;;;12565419;28;20077;-36
2024/01/19 21:43:01;;;;;;;142.40;131.65;;;-0.40;99.90;;;;;;12579860;28;20537;-36
2024/01/19 21:49:04;;;;;;;138.93;128.30;;;-0.40;99.90;;;;;;12571184;28;20055;-36
2024/01/19 21:55:06;;;;;;;140.68;130.07;;;-0.30;99.90;;;;;;12553575;28;20395;-36
2024/01/19 22:01:13;;;;;;;143.25;132.90;;;-0.40;99.90;;;;;;12541728;28;20132;-36
2024/01/19 22:07:18;;;;;;;142.88;132.07;;;-0.40;99.90;;;;;;12566308;28;20056;-36
2024/01/19 22:13:20;;;;;;;144.75;133.60;;;-0.30;99.90;;;;;;12567928;28;20041;-36
2024/01/19 22:19:22;;;;;;;148.07;136.55;;;-0.20;99.90;;;;;;12565332;28;20067;-36
2024/01/19 22:25:24;;;;;;;148.18;137.02;;;-0.20;99.90;;;;;;12564801;28;20049;-35
2024/01/19 22:31:26;;;;;;;149.35;138.32;;;-0.20;99.90;;;;;;12541001;28;20541;-37
2024/01/19 22:37:28;;;;;;;150.50;139.30;;;-0.10;99.90;;;;;;12574426;28;20105;-36
2024/01/19 22:43:30;;;;;;;152.13;140.32;;;-0.10;99.90;;;;;;12570808;28;20524;-37
2024/01/19 22:49:32;;;;;;;151.20;140.05;;;0.00;99.90;;;;;;12565313;28;20045;-36
2024/01/19 22:55:34;;;;;;;153.43;141.73;;;0.00;99.90;;;;;;12552126;28;20186;-37
2024/01/19 23:01:36;;;;;;;156.13;144.13;;;-0.10;99.90;;;;;;12561553;28;20056;-36
2024/01/19 23:07:40;;;;;;;156.85;144.18;;;-0.10;99.90;;;;;;12574877;28;20041;-36
2024/01/19 23:13:42;;;;;;;154.32;141.98;;;-0.10;99.90;;;;;;12556066;28;20127;-36
2024/01/19 23:19:44;;;;;;;154.30;142.27;;;-0.10;99.90;;;;;;12567966;28;20052;-35
2024/01/19 23:25:47;;;;;;;149.82;138.02;;;0.00;99.90;;;;;;12560343;28;20033;-37
2024/01/19 23:31:49;;;;;;;156.18;143.80;;;0.00;99.90;;;;;;12574045;28;20081;-36
2024/01/19 23:37:51;;;;;;;152.70;140.57;;;0.10;99.90;;;;;;12561758;28;20048;-36
2024/01/19 23:43:54;;;;;;;152.60;140.82;;;0.10;99.90;;;;;;12559421;28;20045;-36
2024/01/19 23:49:56;;;;;;;157.30;145.10;;;0.10;99.90;;;;;;12556574;28;21740;-37
2024/01/19 23:55:58;;;;;;;159.98;147.95;;;0.10;99.90;;;;;;12532242;28;20054;-37
